createdAt,value
2019-05-13T00:01:44.244Z,34.90
2019-05-13T00:04:10.488Z,34.80
2019-05-13T00:06:50.157Z,34.90
2019-05-13T00:09:03.519Z,34.90
2019-05-13T00:11:29.588Z,34.60
2019-05-13T00:13:55.796Z,34.60
2019-05-13T00:16:23.451Z,34.70
2019-05-13T00:18:49.480Z,34.80
2019-05-13T00:21:15.715Z,34.60
2019-05-13T00:23:44.082Z,34.70
2019-05-13T00:26:08.162Z,34.70
2019-05-13T00:28:34.525Z,34.80
2019-05-13T00:31:00.636Z,34.90
2019-05-13T00:33:26.866Z,34.90
2019-05-13T00:35:53.413Z,34.80
2019-05-13T00:38:19.319Z,34.70
2019-05-13T00:40:45.536Z,34.80
2019-05-13T00:43:14.056Z,34.90
2019-05-13T00:45:38.013Z,34.80
2019-05-13T00:48:04.794Z,34.80
2019-05-13T00:50:30.451Z,34.60
2019-05-13T00:52:56.681Z,34.70
2019-05-13T00:55:23.823Z,34.60
2019-05-13T00:57:49.131Z,34.70
2019-05-13T01:00:15.373Z,34.60
2019-05-13T01:02:44.334Z,34.70
2019-05-13T01:05:07.831Z,34.90
2019-05-13T01:07:34.197Z,34.60
2019-05-13T01:10:00.287Z,35.40
2019-05-13T01:12:26.516Z,34.60
2019-05-13T01:14:53.420Z,34.60
2019-05-13T01:17:18.969Z,34.80
2019-05-13T01:19:45.194Z,34.60
2019-05-13T01:22:13.358Z,34.80
2019-05-13T01:24:37.648Z,34.80
2019-05-13T01:27:04.315Z,34.80
2019-05-13T01:29:30.109Z,34.70
2019-05-13T01:31:56.337Z,34.90
2019-05-13T01:34:23.617Z,34.70
2019-05-13T01:36:48.791Z,34.70
2019-05-13T01:39:15.019Z,34.60
2019-05-13T01:41:43.660Z,34.90
2019-05-13T01:44:07.476Z,34.80
2019-05-13T01:46:34.646Z,34.70
2019-05-13T01:48:59.944Z,34.90
2019-05-13T01:51:26.153Z,34.70
2019-05-13T01:53:53.415Z,34.20
2019-05-13T01:56:18.621Z,34.80
2019-05-13T01:58:45.040Z,34.70
2019-05-13T02:01:11.075Z,34.80
2019-05-13T02:03:37.305Z,34.60
2019-05-13T02:06:03.921Z,34.60
2019-05-13T02:08:29.767Z,34.70
2019-05-13T02:10:55.988Z,34.60
2019-05-13T02:13:24.530Z,34.70
2019-05-13T02:15:48.450Z,34.70
2019-05-13T02:18:14.664Z,34.60
2019-05-13T02:20:40.910Z,34.60
2019-05-13T02:23:07.134Z,34.70
2019-05-13T02:25:34.097Z,34.10
2019-05-13T02:27:59.580Z,35.50
2019-05-13T02:30:26.753Z,34.70
2019-05-13T02:32:53.081Z,34.70
2019-05-13T02:35:18.269Z,34.80
2019-05-13T02:37:44.498Z,34.70
2019-05-13T02:40:13.508Z,34.60
2019-05-13T02:42:36.954Z,34.60
2019-05-13T02:45:03.954Z,34.70
2019-05-13T02:47:32.843Z,34.70
2019-05-13T02:50:00.377Z,34.60
2019-05-13T02:52:22.457Z,34.50
2019-05-13T02:54:48.511Z,34.60
2019-05-13T02:57:14.737Z,34.70
2019-05-13T02:59:42.310Z,34.40
2019-05-13T03:02:07.599Z,34.60
2019-05-13T03:04:33.838Z,34.60
2019-05-13T03:07:02.879Z,34.60
2019-05-13T03:09:26.290Z,34.70
2019-05-13T03:11:53.508Z,34.70
2019-05-13T03:14:18.741Z,34.70
2019-05-13T03:16:44.978Z,34.70
2019-05-13T03:19:13.548Z,34.70
2019-05-13T03:21:37.870Z,34.60
2019-05-13T03:24:04.055Z,34.60
2019-05-13T03:26:32.201Z,34.70
2019-05-13T03:28:56.518Z,34.60
2019-05-13T03:31:26.094Z,34.50
2019-05-13T03:33:48.972Z,34.50
2019-05-13T03:36:17.210Z,34.60
2019-05-13T03:38:59.954Z,34.50
2019-05-13T03:41:07.663Z,34.50
2019-05-13T03:43:33.890Z,34.60
2019-05-13T03:46:03.085Z,34.50
2019-05-13T03:48:26.749Z,34.60
2019-05-13T03:50:53.487Z,34.60
2019-05-13T03:53:19.209Z,34.60
2019-05-13T03:55:45.448Z,34.60
2019-05-13T03:58:13.071Z,34.50
2019-05-13T04:00:37.899Z,35.20
2019-05-13T04:03:04.121Z,34.60
2019-05-13T04:05:33.451Z,34.20
2019-05-13T04:07:56.994Z,34.70
2019-05-13T04:10:23.517Z,34.50
2019-05-13T04:12:52.417Z,35.00
2019-05-13T04:15:15.662Z,34.60
2019-05-13T04:17:42.810Z,34.50
2019-05-13T04:20:08.134Z,34.40
2019-05-13T04:22:34.344Z,34.50
2019-05-13T04:25:02.502Z,35.20
2019-05-13T04:27:26.821Z,34.40
2019-05-13T04:29:53.053Z,34.40
2019-05-13T04:32:22.699Z,34.40
2019-05-13T04:34:45.496Z,34.60
2019-05-13T04:37:13.189Z,34.40
2019-05-13T04:39:47.630Z,34.40
2019-05-13T04:42:04.586Z,34.40
2019-05-13T04:44:32.424Z,34.50
2019-05-13T04:46:57.049Z,34.60
2019-05-13T04:49:23.625Z,34.60
2019-05-13T04:51:52.394Z,34.60
2019-05-13T04:54:15.733Z,34.50
2019-05-13T04:56:42.290Z,34.60
2019-05-13T04:59:08.156Z,34.60
2019-05-13T05:01:40.325Z,34.60
2019-05-13T05:04:03.402Z,34.60
2019-05-13T05:06:26.893Z,34.50
2019-05-13T05:08:53.125Z,34.50
2019-05-13T05:11:22.030Z,34.50
2019-05-13T05:13:45.558Z,34.50
2019-05-13T05:16:13.005Z,34.70
2019-05-13T05:18:38.001Z,34.50
2019-05-13T05:21:04.222Z,34.50
2019-05-13T05:23:31.908Z,34.40
2019-05-13T05:25:56.689Z,34.30
2019-05-13T05:28:22.934Z,34.40
2019-05-13T05:30:51.665Z,34.30
2019-05-13T05:33:15.782Z,34.20
2019-05-13T05:35:42.732Z,34.30
2019-05-13T05:38:08.241Z,34.00
2019-05-13T05:40:34.939Z,34.30
2019-05-13T05:43:02.404Z,34.50
2019-05-13T05:45:26.929Z,34.30
2019-05-13T05:47:53.141Z,34.40
2019-05-13T05:50:19.388Z,34.50
2019-05-13T05:52:46.004Z,34.30
2019-05-13T05:55:12.252Z,34.20
2019-05-13T05:57:38.474Z,34.30
2019-05-13T06:00:04.699Z,34.50
2019-05-13T06:02:32.308Z,34.40
2019-05-13T06:04:57.973Z,34.30
2019-05-13T06:07:24.201Z,34.50
2019-05-13T06:09:51.584Z,34.40
2019-05-13T06:12:16.657Z,34.40
2019-05-13T06:14:42.887Z,34.50
2019-05-13T06:17:11.374Z,34.50
2019-05-13T06:19:35.339Z,34.50
2019-05-13T06:22:02.564Z,35.10
2019-05-13T06:24:28.221Z,34.50
2019-05-13T06:26:54.429Z,34.50
2019-05-13T06:29:22.265Z,34.60
2019-05-13T06:31:46.891Z,34.50
2019-05-13T06:34:13.151Z,34.50
2019-05-13T06:36:41.645Z,34.60
2019-05-13T06:39:05.573Z,34.60
2019-05-13T06:41:32.359Z,34.80
2019-05-13T06:43:58.027Z,34.70
2019-05-13T06:46:24.256Z,34.60
2019-05-13T06:48:52.090Z,34.60
2019-05-13T06:51:16.713Z,34.70
2019-05-13T06:53:42.932Z,34.70
2019-05-13T06:56:09.174Z,34.60
2019-05-13T06:58:35.410Z,34.70
2019-05-13T07:01:03.672Z,34.60
2019-05-13T07:03:27.855Z,34.80
2019-05-13T07:05:54.102Z,34.80
2019-05-13T07:08:22.157Z,34.70
2019-05-13T07:10:46.537Z,34.80
2019-05-13T07:13:12.765Z,34.90
2019-05-13T07:15:41.426Z,34.80
2019-05-13T07:18:05.220Z,34.90
2019-05-13T07:20:32.214Z,34.80
2019-05-13T07:22:58.506Z,34.90
2019-05-13T07:25:25.979Z,34.90
2019-05-13T07:27:52.186Z,34.80
2019-05-13T07:30:18.414Z,34.90
2019-05-13T07:32:44.642Z,35.10
2019-05-13T07:35:14.214Z,35.00
2019-05-13T07:37:37.097Z,35.10
2019-05-13T07:40:03.327Z,35.10
2019-05-13T07:42:31.287Z,35.00
2019-05-13T07:44:55.778Z,35.10
2019-05-13T07:47:22.427Z,35.20
2019-05-13T07:49:48.251Z,35.10
2019-05-13T07:52:15.302Z,35.20
2019-05-13T07:54:41.991Z,35.10
2019-05-13T07:57:07.729Z,35.10
2019-05-13T07:59:34.377Z,35.20
2019-05-13T08:02:02.231Z,35.20
2019-05-13T08:04:26.924Z,35.20
2019-05-13T08:06:53.118Z,35.90
2019-05-13T08:09:21.618Z,35.20
2019-05-13T08:12:02.363Z,35.30
2019-05-13T08:14:12.477Z,35.30
2019-05-13T08:16:38.383Z,35.30
2019-05-13T08:19:04.610Z,35.30
2019-05-13T08:21:32.219Z,35.30
2019-05-13T08:23:57.086Z,35.30
2019-05-13T08:26:23.298Z,35.30
2019-05-13T08:29:00.306Z,35.30
2019-05-13T08:31:15.807Z,35.30
2019-05-13T08:33:42.503Z,35.40
2019-05-13T08:36:08.213Z,35.30
2019-05-13T08:38:34.453Z,35.30
2019-05-13T08:41:01.963Z,35.50
2019-05-13T08:43:26.896Z,35.50
2019-05-13T08:45:55.700Z,35.40
2019-05-13T08:48:22.031Z,35.40
2019-05-13T08:50:45.582Z,35.50
2019-05-13T08:53:12.277Z,35.50
2019-05-13T08:55:38.048Z,35.50
2019-05-13T08:58:04.271Z,35.40
2019-05-13T09:00:31.865Z,35.40
2019-05-13T09:02:56.745Z,35.60
2019-05-13T09:05:22.960Z,35.50
2019-05-13T09:07:49.180Z,35.50
2019-05-13T09:10:15.417Z,35.60
2019-05-13T09:12:43.335Z,35.50
2019-05-13T09:15:07.857Z,35.60
2019-05-13T09:17:34.105Z,35.50
2019-05-13T09:20:02.794Z,35.60
2019-05-13T09:22:26.545Z,35.70
2019-05-13T09:24:53.152Z,35.60
2019-05-13T09:27:18.991Z,35.70
2019-05-13T09:29:45.226Z,35.50
2019-05-13T09:32:12.224Z,35.40
2019-05-13T09:34:37.688Z,35.40
2019-05-13T09:37:03.909Z,35.50
2019-05-13T09:39:32.303Z,35.50
2019-05-13T09:41:56.389Z,35.60
2019-05-13T09:44:22.606Z,35.80
2019-05-13T09:46:51.673Z,36.00
2019-05-13T09:49:20.010Z,35.60
2019-05-13T09:51:42.526Z,35.80
2019-05-13T09:54:08.729Z,35.70
2019-05-13T09:56:34.949Z,35.70
2019-05-13T09:59:01.915Z,35.70
2019-05-13T10:01:27.401Z,35.70
2019-05-13T10:03:58.039Z,35.70
2019-05-13T10:06:22.198Z,35.60
2019-05-13T10:08:46.092Z,35.70
2019-05-13T10:11:12.507Z,35.80
2019-05-13T10:13:38.539Z,35.70
2019-05-13T10:16:04.761Z,35.70
2019-05-13T10:18:32.651Z,36.50
2019-05-13T10:20:58.715Z,35.60
2019-05-13T10:23:23.438Z,35.70
2019-05-13T10:25:52.123Z,35.60
2019-05-13T10:28:15.901Z,35.50
2019-05-13T10:30:43.751Z,36.20
2019-05-13T10:33:08.355Z,35.50
2019-05-13T10:35:35.809Z,35.60
2019-05-13T10:38:04.388Z,35.60
2019-05-13T10:40:28.265Z,35.50
2019-05-13T10:42:54.473Z,35.50
2019-05-13T10:45:22.302Z,35.30
2019-05-13T10:47:47.056Z,35.40
2019-05-13T10:50:13.568Z,35.30
2019-05-13T10:52:42.547Z,35.30
2019-05-13T10:55:06.025Z,35.30
2019-05-13T10:57:32.258Z,35.40
2019-05-13T11:00:02.376Z,35.30
2019-05-13T11:02:24.704Z,35.30
2019-05-13T11:04:52.532Z,35.30
2019-05-13T11:07:17.145Z,35.30
2019-05-13T11:09:43.377Z,35.30
2019-05-13T11:12:12.162Z,35.30
2019-05-13T11:14:36.659Z,35.60
2019-05-13T11:17:02.892Z,35.30
2019-05-13T11:19:34.383Z,35.30
2019-05-13T11:21:55.334Z,35.40
2019-05-13T11:24:22.771Z,35.40
2019-05-13T11:26:47.796Z,35.30
2019-05-13T11:29:14.029Z,35.30
2019-05-13T11:31:42.462Z,35.40
2019-05-13T11:34:06.468Z,35.40
2019-05-13T11:36:33.303Z,35.40
2019-05-13T11:38:58.929Z,35.40
2019-05-13T11:41:25.166Z,35.30
2019-05-13T11:44:09.251Z,35.30
2019-05-13T11:46:17.619Z,35.40
2019-05-13T11:48:43.831Z,35.40
2019-05-13T11:51:12.811Z,35.40
2019-05-13T11:53:37.664Z,35.40
2019-05-13T11:56:03.632Z,35.40
2019-05-13T11:58:29.154Z,35.30
2019-05-13T12:00:55.345Z,35.30
2019-05-13T12:03:23.013Z,35.50
2019-05-13T12:05:48.261Z,35.40
2019-05-13T12:08:14.474Z,35.40
2019-05-13T12:10:44.003Z,35.50
2019-05-13T12:13:06.921Z,36.00
2019-05-13T12:15:45.639Z,35.30
2019-05-13T12:17:59.445Z,35.30
2019-05-13T12:20:25.607Z,35.40
2019-05-13T12:22:52.149Z,35.40
2019-05-13T12:25:18.065Z,35.30
2019-05-13T12:27:44.325Z,35.40
2019-05-13T12:30:12.487Z,36.10
2019-05-13T12:32:36.756Z,35.20
2019-05-13T12:35:03.657Z,35.20
2019-05-13T12:37:29.210Z,35.20
2019-05-13T12:39:55.447Z,35.20
2019-05-13T12:42:22.763Z,35.10
2019-05-13T12:45:03.694Z,35.20
2019-05-13T12:47:14.132Z,35.10
2019-05-13T12:49:43.747Z,35.10
2019-05-13T12:52:06.568Z,35.10
2019-05-13T12:54:32.814Z,35.10
2019-05-13T12:56:59.034Z,35.10
2019-05-13T12:59:25.248Z,35.20
2019-05-13T13:01:52.734Z,35.10
2019-05-13T13:04:17.707Z,35.10
2019-05-13T13:06:45.517Z,35.00
2019-05-13T13:09:12.762Z,35.10
2019-05-13T13:11:36.401Z,35.00
2019-05-13T13:14:05.768Z,35.00
2019-05-13T13:16:34.216Z,35.00
2019-05-13T13:18:55.062Z,35.00
2019-05-13T13:21:24.460Z,35.00
2019-05-13T13:23:47.541Z,35.00
2019-05-13T13:26:15.907Z,34.90
2019-05-13T13:28:43.479Z,34.90
2019-05-13T13:31:06.193Z,35.00
2019-05-13T13:33:34.313Z,34.90
2019-05-13T13:36:00.340Z,34.80
2019-05-13T13:38:26.221Z,34.80
2019-05-13T13:40:53.904Z,34.70
2019-05-13T13:43:17.747Z,34.70
2019-05-13T13:46:06.633Z,34.70
2019-05-13T13:48:13.359Z,34.70
2019-05-13T13:50:36.438Z,34.70
2019-05-13T13:53:02.670Z,34.70
2019-05-13T13:55:31.426Z,34.90
2019-05-13T13:57:56.748Z,34.60
2019-05-13T14:00:34.355Z,34.50
2019-05-13T14:02:47.561Z,34.50
2019-05-13T14:05:13.802Z,34.50
2019-05-13T14:07:42.432Z,34.50
2019-05-13T14:10:07.286Z,35.20
2019-05-13T14:12:33.312Z,34.40
2019-05-13T14:15:01.827Z,34.50
2019-05-13T14:17:25.744Z,34.40
2019-05-13T14:19:52.500Z,34.40
2019-05-13T14:22:18.197Z,34.40
2019-05-13T14:24:44.472Z,34.40
2019-05-13T14:27:12.041Z,34.30
2019-05-13T14:29:41.218Z,34.20
2019-05-13T14:32:03.162Z,34.30
2019-05-13T14:34:31.904Z,34.30
2019-05-13T14:36:55.557Z,34.30
2019-05-13T14:39:22.206Z,34.80
2019-05-13T14:41:48.009Z,34.20
2019-05-13T14:44:14.244Z,34.30
2019-05-13T14:46:47.152Z,34.20
2019-05-13T14:49:06.773Z,34.10
2019-05-13T14:51:33.006Z,34.00
2019-05-13T14:53:59.559Z,34.00
2019-05-13T14:56:25.787Z,34.00
2019-05-13T14:58:52.702Z,34.00
2019-05-13T15:01:22.280Z,34.00
2019-05-13T15:03:45.829Z,33.90
2019-05-13T15:06:12.373Z,33.90
2019-05-13T15:08:38.577Z,33.90
2019-05-13T15:11:04.821Z,33.90
2019-05-13T15:13:32.442Z,34.70
2019-05-13T15:15:58.522Z,34.00
2019-05-13T15:18:24.732Z,34.70
2019-05-13T15:20:53.001Z,34.00
2019-05-13T15:23:17.302Z,34.00
2019-05-13T15:25:43.408Z,34.00
2019-05-13T15:28:11.918Z,34.00
2019-05-13T15:30:35.868Z,34.00
2019-05-13T15:33:02.096Z,34.00
2019-05-13T15:35:28.320Z,34.00
2019-05-13T15:37:54.559Z,34.10
2019-05-13T15:40:22.011Z,34.10
2019-05-13T15:42:46.970Z,34.10
2019-05-13T15:45:13.250Z,34.00
2019-05-13T15:47:39.473Z,34.10
2019-05-13T15:50:05.702Z,34.10
2019-05-13T15:52:31.928Z,34.10
2019-05-13T15:54:58.165Z,34.00
2019-05-13T15:57:24.385Z,34.20
2019-05-13T15:59:51.807Z,34.10
2019-05-13T16:02:16.830Z,34.10
2019-05-13T16:04:52.138Z,34.10
2019-05-13T16:07:09.305Z,34.10
2019-05-13T16:09:35.503Z,34.00
2019-05-13T16:12:01.858Z,34.00
2019-05-13T16:14:28.394Z,34.00
2019-05-13T16:16:54.996Z,34.00
2019-05-13T16:19:22.043Z,34.00
2019-05-13T16:21:47.481Z,34.00
2019-05-13T16:24:13.680Z,34.00
2019-05-13T16:26:42.392Z,34.00
2019-05-13T16:29:06.145Z,34.00
2019-05-13T16:31:32.337Z,33.90
2019-05-13T16:33:58.580Z,34.00
2019-05-13T16:36:24.813Z,33.90
2019-05-13T16:38:51.043Z,34.00
2019-05-13T16:41:17.280Z,33.90
2019-05-13T16:43:43.486Z,33.80
2019-05-13T16:46:11.920Z,33.80
2019-05-13T16:48:35.937Z,33.70
2019-05-13T16:51:02.168Z,33.70
2019-05-13T16:53:28.528Z,33.70
2019-05-13T16:55:55.049Z,33.80
2019-05-13T16:58:24.933Z,33.70
2019-05-13T17:00:48.305Z,33.70
2019-05-13T17:03:14.524Z,34.30
2019-05-13T17:05:42.045Z,33.60
2019-05-13T17:08:07.403Z,33.60
2019-05-13T17:10:33.620Z,33.60
2019-05-13T17:13:02.937Z,33.50
2019-05-13T17:15:26.636Z,33.50
2019-05-13T17:17:52.307Z,33.60
2019-05-13T17:20:18.525Z,33.50
2019-05-13T17:22:44.771Z,33.50
2019-05-13T17:25:12.673Z,33.50
2019-05-13T17:27:37.198Z,33.40
2019-05-13T17:30:03.433Z,33.30
2019-05-13T17:32:29.661Z,33.20
2019-05-13T17:34:55.886Z,33.20
2019-05-13T17:37:22.217Z,33.20
2019-05-13T17:39:48.332Z,33.30
2019-05-13T17:42:14.561Z,33.20
2019-05-13T17:44:46.015Z,33.20
2019-05-13T17:47:07.033Z,33.40
2019-05-13T17:49:33.266Z,33.30
2019-05-13T17:51:59.466Z,33.30
2019-05-13T17:54:25.714Z,33.20
2019-05-13T17:56:51.865Z,33.30
2019-05-13T17:59:18.159Z,33.20
2019-05-13T18:01:44.390Z,33.20
2019-05-13T18:04:11.796Z,33.20
2019-05-13T18:06:36.854Z,33.10
2019-05-13T18:09:03.062Z,33.10
2019-05-13T18:11:29.285Z,33.10
2019-05-13T18:13:55.521Z,33.20
2019-05-13T18:16:21.905Z,33.20
2019-05-13T18:18:47.982Z,33.20
2019-05-13T18:21:14.197Z,33.20
2019-05-13T18:23:41.404Z,33.20
2019-05-13T18:26:06.646Z,33.20
2019-05-13T18:28:32.881Z,33.40
2019-05-13T18:31:01.501Z,33.50
2019-05-13T18:33:25.335Z,33.40
2019-05-13T18:35:52.546Z,33.50
2019-05-13T18:38:17.785Z,33.40
2019-05-13T18:40:44.022Z,33.40
2019-05-13T18:43:10.245Z,33.40
2019-05-13T18:45:36.453Z,33.40
2019-05-13T18:48:02.700Z,33.50
2019-05-13T18:50:31.199Z,33.50
2019-05-13T18:52:55.142Z,33.50
2019-05-13T18:55:21.370Z,33.40
2019-05-13T18:57:47.596Z,33.40
2019-05-13T19:00:13.839Z,33.30
2019-05-13T19:02:41.535Z,33.40
2019-05-13T19:05:06.280Z,33.40
2019-05-13T19:07:32.507Z,33.40
2019-05-13T19:09:58.724Z,33.40
2019-05-13T19:12:25.814Z,33.60
2019-05-13T19:14:51.686Z,34.30
2019-05-13T19:17:17.418Z,33.60
2019-05-13T19:19:43.660Z,33.70
2019-05-13T19:22:12.103Z,33.60
2019-05-13T19:24:36.098Z,33.50
2019-05-13T19:27:02.337Z,33.50
2019-05-13T19:29:28.562Z,33.80
2019-05-13T19:31:54.781Z,33.60
2019-05-13T19:34:21.521Z,33.50
2019-05-13T19:36:47.123Z,33.50
2019-05-13T19:39:13.450Z,33.60
2019-05-13T19:41:42.063Z,33.70
2019-05-13T19:44:05.950Z,33.80
2019-05-13T19:46:32.160Z,33.60
2019-05-13T19:49:01.520Z,33.40
2019-05-13T19:51:28.287Z,33.40
2019-05-13T19:53:52.453Z,33.80
2019-05-13T19:56:18.680Z,33.70
2019-05-13T19:58:44.900Z,33.70
2019-05-13T20:01:11.761Z,33.80
2019-05-13T20:03:37.361Z,33.80
2019-05-13T20:06:03.580Z,33.80
2019-05-13T20:08:31.838Z,33.70
2019-05-13T20:10:56.040Z,33.60
2019-05-13T20:13:22.293Z,33.70
2019-05-13T20:15:48.488Z,33.70
2019-05-13T20:18:14.733Z,33.80
2019-05-13T20:20:41.285Z,33.70
2019-05-13T20:23:07.988Z,33.70
2019-05-13T20:25:34.219Z,33.70
2019-05-13T20:28:02.379Z,33.60
2019-05-13T20:30:26.696Z,33.70
2019-05-13T20:32:52.909Z,33.60
2019-05-13T20:35:19.133Z,33.60
2019-05-13T20:37:45.358Z,33.60
2019-05-13T20:40:11.697Z,33.60
2019-05-13T20:42:37.804Z,33.70
2019-05-13T20:45:04.032Z,33.60
2019-05-13T20:47:30.259Z,33.40
2019-05-13T20:50:01.537Z,33.50
2019-05-13T20:52:22.720Z,33.50
2019-05-13T20:54:51.003Z,33.60
2019-05-13T20:57:15.182Z,33.50
2019-05-13T20:59:41.547Z,33.50
2019-05-13T21:02:07.620Z,33.30
2019-05-13T21:04:33.849Z,33.30
2019-05-13T21:07:02.122Z,33.40
2019-05-13T21:09:26.303Z,33.40
2019-05-13T21:11:52.529Z,33.40
2019-05-13T21:14:18.695Z,33.40
2019-05-13T21:16:44.986Z,33.40
2019-05-13T21:19:12.379Z,33.40
2019-05-13T21:21:37.406Z,33.10
2019-05-13T21:24:03.660Z,33.40
2019-05-13T21:26:31.500Z,33.40
2019-05-13T21:28:56.120Z,33.30
2019-05-13T21:31:22.357Z,33.10
2019-05-13T21:33:48.566Z,33.20
2019-05-13T21:36:14.797Z,33.20
2019-05-13T21:38:41.027Z,33.10
2019-05-13T21:41:07.255Z,33.30
2019-05-13T21:43:33.479Z,33.20
2019-05-13T21:46:01.894Z,33.10
2019-05-13T21:48:25.946Z,33.10
2019-05-13T21:50:52.163Z,33.20
2019-05-13T21:53:18.388Z,33.10
2019-05-13T21:55:44.649Z,33.00
2019-05-13T21:58:13.846Z,33.00
2019-05-13T22:00:37.123Z,33.10
2019-05-13T22:03:03.293Z,32.70
2019-05-13T22:05:31.328Z,33.10
2019-05-13T22:07:55.748Z,32.80
2019-05-13T22:10:21.976Z,32.80
2019-05-13T22:12:48.204Z,33.80
2019-05-13T22:15:14.436Z,33.00
2019-05-13T22:17:42.249Z,33.00
2019-05-13T22:20:06.889Z,32.90
2019-05-13T22:22:33.118Z,32.90
2019-05-13T22:25:01.785Z,33.00
2019-05-13T22:27:25.578Z,33.00
2019-05-13T22:29:51.812Z,32.80
2019-05-13T22:32:18.023Z,32.70
2019-05-13T22:34:44.253Z,33.00
2019-05-13T22:37:11.665Z,32.90
2019-05-13T22:39:36.753Z,32.90
2019-05-13T22:42:02.903Z,32.80
2019-05-13T22:44:29.178Z,32.80
2019-05-13T22:46:55.384Z,32.80
2019-05-13T22:49:22.217Z,32.80
2019-05-13T22:51:47.859Z,32.90
2019-05-13T22:54:14.077Z,32.80
2019-05-13T22:56:41.190Z,32.90
2019-05-13T22:59:06.530Z,32.80
2019-05-13T23:01:32.804Z,32.90
2019-05-13T23:03:58.980Z,32.90
2019-05-13T23:06:25.205Z,33.70
2019-05-13T23:08:51.441Z,32.90
2019-05-13T23:11:17.623Z,32.90
2019-05-13T23:13:43.902Z,32.80
2019-05-13T23:16:11.550Z,32.80
2019-05-13T23:18:36.372Z,32.70
2019-05-13T23:21:02.593Z,32.80
2019-05-13T23:23:28.827Z,32.70
2019-05-13T23:25:56.949Z,32.70
2019-05-13T23:28:21.710Z,32.90
2019-05-13T23:30:47.489Z,32.70
2019-05-13T23:33:13.720Z,32.90
2019-05-13T23:35:41.805Z,32.80
2019-05-13T23:38:06.178Z,32.90
2019-05-13T23:40:32.413Z,32.80
2019-05-13T23:42:58.629Z,33.00
2019-05-13T23:45:24.857Z,32.70
2019-05-13T23:47:51.151Z,33.00
2019-05-13T23:50:17.312Z,33.10
2019-05-13T23:52:43.537Z,33.00
2019-05-13T23:55:11.061Z,32.90
2019-05-13T23:57:35.996Z,33.00
